Porto Seguro, Brazil
Current Conditions -  °F | °C
As of 7:00 PM on Sunday 25 Jan 2015 (Local Time) from SBPS Reporting Station
Rain Showers Rain Showers  
Wind Chill: 81°   Ceiling: 8000
Heat Index: 85°   Visibility: 6mi
Dew Point: 73°   Wind: 8mph
Humidity: 79%   Direction: 70°ENE
Pressure: NA   Gusts: NA
Location:  16.43°S, 39.08°W
Report Text: SBPS 252200Z 07007KT 9999 VCSH SCT020 FEW025TCU BKN080 27/23 Q1014
Loading
Personal Weather Stations






























Interactive Weather Map New forecast layout! Learn more

10-Day Weather Forecast

Advertisements
Track Severe Weather on mobile